sensor_id;sensor_type;location;lat;lon;timestamp;P1;durP1;ratioP1;P2;durP2;ratioP2
62006;SDS011;47963;53.008;6.754;2022-08-21T00:01:18;9.13;;;3.25;;
62006;SDS011;47963;53.008;6.754;2022-08-21T00:03:45;9.10;;;3.58;;
62006;SDS011;47963;53.008;6.754;2022-08-21T00:06:11;8.23;;;3.08;;
62006;SDS011;47963;53.008;6.754;2022-08-21T00:08:37;8.80;;;3.30;;
62006;SDS011;47963;53.008;6.754;2022-08-21T00:11:03;8.52;;;3.10;;
62006;SDS011;47963;53.008;6.754;2022-08-21T00:13:30;7.90;;;3.00;;
62006;SDS011;47963;53.008;6.754;2022-08-21T00:15:56;9.20;;;3.50;;
62006;SDS011;47963;53.008;6.754;2022-08-21T00:18:21;8.32;;;3.05;;
62006;SDS011;47963;53.008;6.754;2022-08-21T00:20:47;9.68;;;3.17;;
62006;SDS011;47963;53.008;6.754;2022-08-21T00:23:14;10.32;;;3.35;;
62006;SDS011;47963;53.008;6.754;2022-08-21T00:25:41;8.30;;;3.35;;
62006;SDS011;47963;53.008;6.754;2022-08-21T00:28:08;8.70;;;2.95;;
62006;SDS011;47963;53.008;6.754;2022-08-21T00:30:34;8.52;;;3.20;;
62006;SDS011;47963;53.008;6.754;2022-08-21T00:33:00;8.98;;;3.30;;
62006;SDS011;47963;53.008;6.754;2022-08-21T00:35:29;8.90;;;2.92;;
62006;SDS011;47963;53.008;6.754;2022-08-21T00:37:56;9.50;;;3.10;;
62006;SDS011;47963;53.008;6.754;2022-08-21T00:40:34;8.00;;;2.70;;
62006;SDS011;47963;53.008;6.754;2022-08-21T00:43:21;9.18;;;3.17;;
62006;SDS011;47963;53.008;6.754;2022-08-21T00:45:49;8.68;;;2.83;;
62006;SDS011;47963;53.008;6.754;2022-08-21T00:48:16;9.07;;;2.97;;
62006;SDS011;47963;53.008;6.754;2022-08-21T00:50:43;7.93;;;2.85;;
62006;SDS011;47963;53.008;6.754;2022-08-21T00:53:13;8.13;;;2.78;;
62006;SDS011;47963;53.008;6.754;2022-08-21T00:55:40;6.90;;;2.70;;
62006;SDS011;47963;53.008;6.754;2022-08-21T00:58:07;8.55;;;3.10;;
62006;SDS011;47963;53.008;6.754;2022-08-21T01:00:36;11.05;;;3.08;;
62006;SDS011;47963;53.008;6.754;2022-08-21T01:03:09;8.23;;;2.90;;
62006;SDS011;47963;53.008;6.754;2022-08-21T01:05:37;9.38;;;3.08;;
62006;SDS011;47963;53.008;6.754;2022-08-21T01:08:03;8.93;;;2.85;;
62006;SDS011;47963;53.008;6.754;2022-08-21T01:10:29;6.70;;;2.65;;
62006;SDS011;47963;53.008;6.754;2022-08-21T01:12:55;8.02;;;3.00;;
62006;SDS011;47963;53.008;6.754;2022-08-21T01:15:24;9.00;;;2.85;;
62006;SDS011;47963;53.008;6.754;2022-08-21T01:17:55;9.40;;;3.22;;
62006;SDS011;47963;53.008;6.754;2022-08-21T01:20:21;8.65;;;3.22;;
62006;SDS011;47963;53.008;6.754;2022-08-21T01:22:47;8.65;;;3.33;;
62006;SDS011;47963;53.008;6.754;2022-08-21T01:25:14;7.65;;;2.83;;
62006;SDS011;47963;53.008;6.754;2022-08-21T01:27:41;8.10;;;3.10;;
62006;SDS011;47963;53.008;6.754;2022-08-21T01:30:08;7.78;;;2.80;;
62006;SDS011;47963;53.008;6.754;2022-08-21T01:32:38;8.23;;;2.83;;
62006;SDS011;47963;53.008;6.754;2022-08-21T01:35:05;10.95;;;3.03;;
62006;SDS011;47963;53.008;6.754;2022-08-21T01:37:31;7.63;;;2.90;;
62006;SDS011;47963;53.008;6.754;2022-08-21T01:39:57;8.68;;;3.47;;
62006;SDS011;47963;53.008;6.754;2022-08-21T01:42:23;9.32;;;3.55;;
62006;SDS011;47963;53.008;6.754;2022-08-21T01:44:50;8.30;;;3.15;;
62006;SDS011;47963;53.008;6.754;2022-08-21T01:47:16;10.63;;;3.65;;
62006;SDS011;47963;53.008;6.754;2022-08-21T01:49:42;10.48;;;3.40;;
62006;SDS011;47963;53.008;6.754;2022-08-21T01:52:09;12.00;;;3.83;;
62006;SDS011;47963;53.008;6.754;2022-08-21T01:54:35;9.73;;;3.17;;
62006;SDS011;47963;53.008;6.754;2022-08-21T01:57:01;8.57;;;3.50;;
62006;SDS011;47963;53.008;6.754;2022-08-21T01:59:28;9.98;;;3.40;;
62006;SDS011;47963;53.008;6.754;2022-08-21T02:01:53;8.77;;;3.75;;
62006;SDS011;47963;53.008;6.754;2022-08-21T02:04:20;9.75;;;4.05;;
62006;SDS011;47963;53.008;6.754;2022-08-21T02:06:46;8.82;;;4.00;;
62006;SDS011;47963;53.008;6.754;2022-08-21T02:09:12;10.98;;;4.63;;
62006;SDS011;47963;53.008;6.754;2022-08-21T02:11:39;7.82;;;3.90;;
62006;SDS011;47963;53.008;6.754;2022-08-21T02:14:09;10.77;;;4.60;;
62006;SDS011;47963;53.008;6.754;2022-08-21T02:16:37;9.25;;;4.35;;
62006;SDS011;47963;53.008;6.754;2022-08-21T02:19:04;8.25;;;4.65;;
62006;SDS011;47963;53.008;6.754;2022-08-21T02:21:30;11.55;;;5.25;;
62006;SDS011;47963;53.008;6.754;2022-08-21T02:23:56;10.50;;;5.30;;
62006;SDS011;47963;53.008;6.754;2022-08-21T02:26:25;9.73;;;5.35;;
62006;SDS011;47963;53.008;6.754;2022-08-21T02:28:50;9.05;;;5.28;;
62006;SDS011;47963;53.008;6.754;2022-08-21T02:31:16;12.27;;;5.82;;
62006;SDS011;47963;53.008;6.754;2022-08-21T02:33:42;13.75;;;6.30;;
62006;SDS011;47963;53.008;6.754;2022-08-21T02:36:08;11.27;;;6.25;;
62006;SDS011;47963;53.008;6.754;2022-08-21T02:38:36;9.10;;;4.90;;
62006;SDS011;47963;53.008;6.754;2022-08-21T02:41:04;11.30;;;5.45;;
62006;SDS011;47963;53.008;6.754;2022-08-21T02:43:34;11.25;;;5.63;;
62006;SDS011;47963;53.008;6.754;2022-08-21T02:46:00;11.00;;;5.63;;
62006;SDS011;47963;53.008;6.754;2022-08-21T02:48:28;10.95;;;5.85;;
62006;SDS011;47963;53.008;6.754;2022-08-21T02:50:56;10.82;;;5.70;;
62006;SDS011;47963;53.008;6.754;2022-08-21T02:53:25;11.32;;;5.60;;
62006;SDS011;47963;53.008;6.754;2022-08-21T02:55:52;10.93;;;5.60;;
62006;SDS011;47963;53.008;6.754;2022-08-21T02:58:20;9.13;;;5.55;;
62006;SDS011;47963;53.008;6.754;2022-08-21T03:00:48;11.38;;;5.47;;
62006;SDS011;47963;53.008;6.754;2022-08-21T03:03:15;11.20;;;5.60;;
62006;SDS011;47963;53.008;6.754;2022-08-21T03:05:41;12.15;;;5.97;;
62006;SDS011;47963;53.008;6.754;2022-08-21T03:08:10;11.60;;;5.43;;
62006;SDS011;47963;53.008;6.754;2022-08-21T03:10:38;11.27;;;5.93;;
62006;SDS011;47963;53.008;6.754;2022-08-21T03:13:05;10.10;;;5.38;;
62006;SDS011;47963;53.008;6.754;2022-08-21T03:15:32;11.73;;;6.65;;
62006;SDS011;47963;53.008;6.754;2022-08-21T03:17:58;10.30;;;5.57;;
62006;SDS011;47963;53.008;6.754;2022-08-21T03:20:24;10.07;;;5.63;;
62006;SDS011;47963;53.008;6.754;2022-08-21T03:22:52;11.68;;;5.82;;
62006;SDS011;47963;53.008;6.754;2022-08-21T03:25:19;9.13;;;5.47;;
62006;SDS011;47963;53.008;6.754;2022-08-21T03:27:46;9.88;;;5.80;;
62006;SDS011;47963;53.008;6.754;2022-08-21T03:30:14;10.70;;;6.15;;
62006;SDS011;47963;53.008;6.754;2022-08-21T03:32:40;10.60;;;6.18;;
62006;SDS011;47963;53.008;6.754;2022-08-21T03:35:06;10.18;;;5.85;;
62006;SDS011;47963;53.008;6.754;2022-08-21T03:37:32;11.70;;;5.70;;
62006;SDS011;47963;53.008;6.754;2022-08-21T03:39:58;11.23;;;5.75;;
62006;SDS011;47963;53.008;6.754;2022-08-21T03:42:23;10.82;;;6.00;;
62006;SDS011;47963;53.008;6.754;2022-08-21T03:44:49;10.25;;;5.82;;
62006;SDS011;47963;53.008;6.754;2022-08-21T03:47:15;9.68;;;5.43;;
62006;SDS011;47963;53.008;6.754;2022-08-21T03:49:41;9.95;;;5.72;;
62006;SDS011;47963;53.008;6.754;2022-08-21T03:52:06;10.80;;;5.93;;
62006;SDS011;47963;53.008;6.754;2022-08-21T03:54:32;10.73;;;5.53;;
62006;SDS011;47963;53.008;6.754;2022-08-21T03:56:58;11.82;;;5.65;;
62006;SDS011;47963;53.008;6.754;2022-08-21T03:59:24;10.60;;;6.03;;
62006;SDS011;47963;53.008;6.754;2022-08-21T04:01:54;11.68;;;6.30;;
62006;SDS011;47963;53.008;6.754;2022-08-21T04:04:21;9.98;;;5.85;;
62006;SDS011;47963;53.008;6.754;2022-08-21T04:06:47;9.52;;;5.70;;
62006;SDS011;47963;53.008;6.754;2022-08-21T04:09:12;12.23;;;6.63;;
62006;SDS011;47963;53.008;6.754;2022-08-21T04:11:38;10.48;;;6.47;;
62006;SDS011;47963;53.008;6.754;2022-08-21T04:14:04;9.93;;;5.93;;
62006;SDS011;47963;53.008;6.754;2022-08-21T04:16:30;11.55;;;6.30;;
62006;SDS011;47963;53.008;6.754;2022-08-21T04:18:56;12.35;;;7.03;;
62006;SDS011;47963;53.008;6.754;2022-08-21T04:21:21;10.38;;;6.10;;
62006;SDS011;47963;53.008;6.754;2022-08-21T04:23:48;10.30;;;6.20;;
62006;SDS011;47963;53.008;6.754;2022-08-21T04:26:13;11.02;;;6.25;;
62006;SDS011;47963;53.008;6.754;2022-08-21T04:28:39;11.15;;;6.07;;
62006;SDS011;47963;53.008;6.754;2022-08-21T04:31:05;12.90;;;6.57;;
62006;SDS011;47963;53.008;6.754;2022-08-21T04:33:30;10.25;;;6.30;;
62006;SDS011;47963;53.008;6.754;2022-08-21T04:35:56;12.57;;;7.00;;
62006;SDS011;47963;53.008;6.754;2022-08-21T04:38:21;10.98;;;6.97;;
62006;SDS011;47963;53.008;6.754;2022-08-21T04:40:48;11.73;;;6.18;;
62006;SDS011;47963;53.008;6.754;2022-08-21T04:43:14;11.95;;;6.80;;
62006;SDS011;47963;53.008;6.754;2022-08-21T04:45:42;13.30;;;7.10;;
62006;SDS011;47963;53.008;6.754;2022-08-21T04:48:12;10.95;;;6.63;;
62006;SDS011;47963;53.008;6.754;2022-08-21T04:50:53;10.80;;;6.95;;
62006;SDS011;47963;53.008;6.754;2022-08-21T04:55:56;12.27;;;6.53;;
62006;SDS011;47963;53.008;6.754;2022-08-21T04:58:26;13.00;;;7.60;;
62006;SDS011;47963;53.008;6.754;2022-08-21T05:00:54;11.45;;;6.78;;
62006;SDS011;47963;53.008;6.754;2022-08-21T05:03:21;13.38;;;6.65;;
62006;SDS011;47963;53.008;6.754;2022-08-21T05:05:48;11.65;;;6.65;;
62006;SDS011;47963;53.008;6.754;2022-08-21T05:08:15;11.90;;;6.82;;
62006;SDS011;47963;53.008;6.754;2022-08-21T05:10:43;12.60;;;6.93;;
62006;SDS011;47963;53.008;6.754;2022-08-21T05:13:09;12.25;;;7.03;;
62006;SDS011;47963;53.008;6.754;2022-08-21T05:15:38;11.25;;;7.10;;
62006;SDS011;47963;53.008;6.754;2022-08-21T05:18:04;10.27;;;6.47;;
62006;SDS011;47963;53.008;6.754;2022-08-21T05:20:30;10.07;;;6.28;;
62006;SDS011;47963;53.008;6.754;2022-08-21T05:22:55;11.73;;;6.53;;
62006;SDS011;47963;53.008;6.754;2022-08-21T05:25:21;12.35;;;6.30;;
62006;SDS011;47963;53.008;6.754;2022-08-21T05:27:47;11.85;;;6.88;;
62006;SDS011;47963;53.008;6.754;2022-08-21T05:30:12;14.73;;;6.38;;
62006;SDS011;47963;53.008;6.754;2022-08-21T05:32:38;13.05;;;6.93;;
62006;SDS011;47963;53.008;6.754;2022-08-21T05:35:05;12.13;;;6.97;;
62006;SDS011;47963;53.008;6.754;2022-08-21T05:37:31;12.63;;;6.68;;
62006;SDS011;47963;53.008;6.754;2022-08-21T05:39:58;13.55;;;7.20;;
62006;SDS011;47963;53.008;6.754;2022-08-21T05:42:24;13.43;;;6.97;;
62006;SDS011;47963;53.008;6.754;2022-08-21T05:44:50;12.68;;;6.78;;
62006;SDS011;47963;53.008;6.754;2022-08-21T05:47:16;13.88;;;8.32;;
62006;SDS011;47963;53.008;6.754;2022-08-21T05:49:41;14.65;;;7.25;;
62006;SDS011;47963;53.008;6.754;2022-08-21T05:52:07;12.40;;;6.85;;
62006;SDS011;47963;53.008;6.754;2022-08-21T05:54:32;15.40;;;7.70;;
62006;SDS011;47963;53.008;6.754;2022-08-21T05:57:00;13.85;;;7.20;;
62006;SDS011;47963;53.008;6.754;2022-08-21T05:59:27;13.57;;;7.28;;
62006;SDS011;47963;53.008;6.754;2022-08-21T06:01:53;12.35;;;7.13;;
62006;SDS011;47963;53.008;6.754;2022-08-21T06:04:18;14.80;;;7.40;;
62006;SDS011;47963;53.008;6.754;2022-08-21T06:06:44;14.52;;;7.40;;
62006;SDS011;47963;53.008;6.754;2022-08-21T06:09:11;12.10;;;7.00;;
62006;SDS011;47963;53.008;6.754;2022-08-21T06:11:36;12.30;;;6.82;;
62006;SDS011;47963;53.008;6.754;2022-08-21T06:14:02;12.88;;;6.90;;
62006;SDS011;47963;53.008;6.754;2022-08-21T06:16:29;12.43;;;6.63;;
62006;SDS011;47963;53.008;6.754;2022-08-21T06:18:54;14.32;;;7.85;;
62006;SDS011;47963;53.008;6.754;2022-08-21T06:21:20;12.57;;;6.50;;
62006;SDS011;47963;53.008;6.754;2022-08-21T06:23:45;12.85;;;6.55;;
62006;SDS011;47963;53.008;6.754;2022-08-21T06:26:13;12.65;;;6.40;;
62006;SDS011;47963;53.008;6.754;2022-08-21T06:28:39;15.15;;;6.70;;
62006;SDS011;47963;53.008;6.754;2022-08-21T06:31:16;12.98;;;6.80;;
62006;SDS011;47963;53.008;6.754;2022-08-21T06:33:44;13.23;;;6.45;;
62006;SDS011;47963;53.008;6.754;2022-08-21T06:36:10;13.82;;;6.50;;
62006;SDS011;47963;53.008;6.754;2022-08-21T06:38:36;13.75;;;6.50;;
62006;SDS011;47963;53.008;6.754;2022-08-21T06:41:03;10.95;;;6.00;;
62006;SDS011;47963;53.008;6.754;2022-08-21T06:43:29;10.98;;;5.88;;
62006;SDS011;47963;53.008;6.754;2022-08-21T06:45:55;13.82;;;6.30;;
62006;SDS011;47963;53.008;6.754;2022-08-21T06:48:21;13.80;;;6.65;;
62006;SDS011;47963;53.008;6.754;2022-08-21T06:50:47;14.48;;;6.57;;
62006;SDS011;47963;53.008;6.754;2022-08-21T06:53:13;13.35;;;6.50;;
62006;SDS011;47963;53.008;6.754;2022-08-21T06:55:40;12.07;;;5.90;;
62006;SDS011;47963;53.008;6.754;2022-08-21T06:58:07;13.55;;;5.80;;
62006;SDS011;47963;53.008;6.754;2022-08-21T07:00:34;15.38;;;6.20;;
62006;SDS011;47963;53.008;6.754;2022-08-21T07:03:00;12.85;;;6.00;;
62006;SDS011;47963;53.008;6.754;2022-08-21T07:05:26;14.02;;;5.38;;
62006;SDS011;47963;53.008;6.754;2022-08-21T07:07:54;13.43;;;5.80;;
62006;SDS011;47963;53.008;6.754;2022-08-21T07:10:21;16.20;;;5.93;;
62006;SDS011;47963;53.008;6.754;2022-08-21T07:12:47;16.25;;;5.60;;
62006;SDS011;47963;53.008;6.754;2022-08-21T07:15:13;13.18;;;5.15;;
62006;SDS011;47963;53.008;6.754;2022-08-21T07:17:38;12.38;;;4.95;;
62006;SDS011;47963;53.008;6.754;2022-08-21T07:20:04;12.93;;;5.40;;
62006;SDS011;47963;53.008;6.754;2022-08-21T07:22:31;12.57;;;4.90;;
62006;SDS011;47963;53.008;6.754;2022-08-21T07:24:57;14.18;;;4.65;;
62006;SDS011;47963;53.008;6.754;2022-08-21T07:27:23;12.68;;;4.90;;
62006;SDS011;47963;53.008;6.754;2022-08-21T07:29:49;11.65;;;4.60;;
62006;SDS011;47963;53.008;6.754;2022-08-21T07:32:15;14.80;;;5.05;;
62006;SDS011;47963;53.008;6.754;2022-08-21T07:34:41;12.88;;;4.93;;
62006;SDS011;47963;53.008;6.754;2022-08-21T07:37:07;12.95;;;4.75;;
62006;SDS011;47963;53.008;6.754;2022-08-21T07:39:32;11.60;;;4.55;;
62006;SDS011;47963;53.008;6.754;2022-08-21T07:41:58;12.50;;;4.43;;
62006;SDS011;47963;53.008;6.754;2022-08-21T07:44:24;11.05;;;4.10;;
62006;SDS011;47963;53.008;6.754;2022-08-21T07:46:49;11.68;;;4.45;;
62006;SDS011;47963;53.008;6.754;2022-08-21T07:49:15;13.10;;;4.53;;
62006;SDS011;47963;53.008;6.754;2022-08-21T07:51:43;12.50;;;4.57;;
62006;SDS011;47963;53.008;6.754;2022-08-21T07:54:09;14.90;;;4.78;;
62006;SDS011;47963;53.008;6.754;2022-08-21T07:56:35;14.75;;;4.80;;
62006;SDS011;47963;53.008;6.754;2022-08-21T07:59:00;12.75;;;4.15;;
62006;SDS011;47963;53.008;6.754;2022-08-21T08:01:27;12.45;;;4.20;;
62006;SDS011;47963;53.008;6.754;2022-08-21T08:03:54;11.93;;;4.53;;
62006;SDS011;47963;53.008;6.754;2022-08-21T08:06:20;14.52;;;4.55;;
62006;SDS011;47963;53.008;6.754;2022-08-21T08:08:45;13.07;;;4.65;;
62006;SDS011;47963;53.008;6.754;2022-08-21T08:11:11;13.88;;;4.93;;
62006;SDS011;47963;53.008;6.754;2022-08-21T08:13:47;15.32;;;4.55;;
62006;SDS011;47963;53.008;6.754;2022-08-21T08:16:15;12.75;;;4.15;;
62006;SDS011;47963;53.008;6.754;2022-08-21T08:18:41;12.38;;;4.30;;
62006;SDS011;47963;53.008;6.754;2022-08-21T08:21:07;12.95;;;4.22;;
62006;SDS011;47963;53.008;6.754;2022-08-21T08:23:34;11.85;;;4.25;;
62006;SDS011;47963;53.008;6.754;2022-08-21T08:26:00;12.95;;;3.95;;
62006;SDS011;47963;53.008;6.754;2022-08-21T08:28:27;11.10;;;3.58;;
62006;SDS011;47963;53.008;6.754;2022-08-21T08:30:53;11.23;;;3.88;;
62006;SDS011;47963;53.008;6.754;2022-08-21T08:33:20;12.00;;;3.97;;
62006;SDS011;47963;53.008;6.754;2022-08-21T08:35:47;9.73;;;3.25;;
62006;SDS011;47963;53.008;6.754;2022-08-21T08:38:14;12.32;;;3.53;;
62006;SDS011;47963;53.008;6.754;2022-08-21T08:43:10;12.07;;;3.65;;
62006;SDS011;47963;53.008;6.754;2022-08-21T08:45:40;10.77;;;3.75;;
62006;SDS011;47963;53.008;6.754;2022-08-21T08:48:12;11.88;;;3.90;;
62006;SDS011;47963;53.008;6.754;2022-08-21T08:50:41;12.00;;;3.42;;
62006;SDS011;47963;53.008;6.754;2022-08-21T08:53:10;12.35;;;4.00;;
62006;SDS011;47963;53.008;6.754;2022-08-21T08:55:44;12.85;;;4.18;;
62006;SDS011;47963;53.008;6.754;2022-08-21T08:58:21;12.90;;;3.92;;
62006;SDS011;47963;53.008;6.754;2022-08-21T09:00:50;10.85;;;3.22;;
62006;SDS011;47963;53.008;6.754;2022-08-21T09:03:17;12.40;;;3.50;;
62006;SDS011;47963;53.008;6.754;2022-08-21T09:05:45;14.73;;;3.90;;
62006;SDS011;47963;53.008;6.754;2022-08-21T09:11:22;9.88;;;3.28;;
62006;SDS011;47963;53.008;6.754;2022-08-21T09:22:45;11.18;;;3.30;;
62006;SDS011;47963;53.008;6.754;2022-08-21T09:25:24;10.52;;;3.80;;
62006;SDS011;47963;53.008;6.754;2022-08-21T09:27:53;12.80;;;3.92;;
62006;SDS011;47963;53.008;6.754;2022-08-21T09:30:23;10.10;;;2.85;;
62006;SDS011;47963;53.008;6.754;2022-08-21T09:32:53;11.10;;;2.80;;
62006;SDS011;47963;53.008;6.754;2022-08-21T09:35:21;9.43;;;2.90;;
62006;SDS011;47963;53.008;6.754;2022-08-21T09:37:57;9.57;;;2.90;;
62006;SDS011;47963;53.008;6.754;2022-08-21T09:40:36;9.10;;;2.97;;
62006;SDS011;47963;53.008;6.754;2022-08-21T09:45:37;9.70;;;2.70;;
62006;SDS011;47963;53.008;6.754;2022-08-21T09:48:20;9.65;;;2.38;;
62006;SDS011;47963;53.008;6.754;2022-08-21T09:50:48;10.32;;;2.40;;
62006;SDS011;47963;53.008;6.754;2022-08-21T09:53:22;11.32;;;2.72;;
62006;SDS011;47963;53.008;6.754;2022-08-21T09:55:58;9.98;;;2.60;;
62006;SDS011;47963;53.008;6.754;2022-08-21T09:58:46;10.00;;;2.65;;
62006;SDS011;47963;53.008;6.754;2022-08-21T10:01:18;8.70;;;2.40;;
62006;SDS011;47963;53.008;6.754;2022-08-21T10:04:03;12.05;;;2.50;;
62006;SDS011;47963;53.008;6.754;2022-08-21T10:06:29;9.25;;;2.30;;
62006;SDS011;47963;53.008;6.754;2022-08-21T10:09:12;10.02;;;2.47;;
62006;SDS011;47963;53.008;6.754;2022-08-21T10:11:40;11.05;;;3.00;;
62006;SDS011;47963;53.008;6.754;2022-08-21T10:14:32;8.43;;;2.45;;
62006;SDS011;47963;53.008;6.754;2022-08-21T10:19:51;9.57;;;2.40;;
62006;SDS011;47963;53.008;6.754;2022-08-21T10:25:49;8.70;;;2.20;;
62006;SDS011;47963;53.008;6.754;2022-08-21T10:28:36;10.50;;;2.53;;
62006;SDS011;47963;53.008;6.754;2022-08-21T10:39:36;8.85;;;2.63;;
62006;SDS011;47963;53.008;6.754;2022-08-21T10:47:35;7.53;;;2.33;;
62006;SDS011;47963;53.008;6.754;2022-08-21T10:55:33;11.27;;;2.78;;
62006;SDS011;47963;53.008;6.754;2022-08-21T10:58:09;9.13;;;2.42;;
62006;SDS011;47963;53.008;6.754;2022-08-21T11:00:41;8.75;;;2.30;;
62006;SDS011;47963;53.008;6.754;2022-08-21T11:03:25;8.98;;;2.35;;
62006;SDS011;47963;53.008;6.754;2022-08-21T11:06:13;8.68;;;2.50;;
62006;SDS011;47963;53.008;6.754;2022-08-21T11:08:51;9.13;;;2.33;;
62006;SDS011;47963;53.008;6.754;2022-08-21T11:11:31;9.95;;;2.50;;
62006;SDS011;47963;53.008;6.754;2022-08-21T11:17:09;8.95;;;2.38;;
62006;SDS011;47963;53.008;6.754;2022-08-21T11:19:43;10.93;;;2.50;;
62006;SDS011;47963;53.008;6.754;2022-08-21T11:25:26;8.15;;;2.30;;
62006;SDS011;47963;53.008;6.754;2022-08-21T11:28:02;8.45;;;2.30;;
62006;SDS011;47963;53.008;6.754;2022-08-21T11:30:58;8.32;;;2.40;;
62006;SDS011;47963;53.008;6.754;2022-08-21T11:36:53;9.15;;;2.25;;
62006;SDS011;47963;53.008;6.754;2022-08-21T11:50:48;8.93;;;2.53;;
62006;SDS011;47963;53.008;6.754;2022-08-21T11:53:26;9.50;;;2.88;;
62006;SDS011;47963;53.008;6.754;2022-08-21T11:56:08;9.25;;;2.53;;
62006;SDS011;47963;53.008;6.754;2022-08-21T11:58:45;9.10;;;2.60;;
62006;SDS011;47963;53.008;6.754;2022-08-21T12:01:17;8.25;;;2.40;;
62006;SDS011;47963;53.008;6.754;2022-08-21T12:03:56;8.45;;;2.42;;
62006;SDS011;47963;53.008;6.754;2022-08-21T12:06:29;8.27;;;2.25;;
62006;SDS011;47963;53.008;6.754;2022-08-21T12:09:05;8.10;;;2.55;;
62006;SDS011;47963;53.008;6.754;2022-08-21T12:12:04;9.02;;;2.47;;
62006;SDS011;47963;53.008;6.754;2022-08-21T12:17:17;7.47;;;2.15;;
62006;SDS011;47963;53.008;6.754;2022-08-21T12:19:44;9.00;;;2.35;;
62006;SDS011;47963;53.008;6.754;2022-08-21T12:22:21;9.90;;;2.72;;
62006;SDS011;47963;53.008;6.754;2022-08-21T12:24:50;7.70;;;2.13;;
62006;SDS011;47963;53.008;6.754;2022-08-21T12:33:03;10.40;;;2.88;;
62006;SDS011;47963;53.008;6.754;2022-08-21T12:35:32;9.25;;;2.70;;
62006;SDS011;47963;53.008;6.754;2022-08-21T12:38:06;9.35;;;2.80;;
62006;SDS011;47963;53.008;6.754;2022-08-21T12:40:42;10.30;;;2.72;;
62006;SDS011;47963;53.008;6.754;2022-08-21T12:43:27;8.13;;;2.22;;
62006;SDS011;47963;53.008;6.754;2022-08-21T12:45:58;9.32;;;2.75;;
62006;SDS011;47963;53.008;6.754;2022-08-21T12:48:35;8.50;;;2.60;;
62006;SDS011;47963;53.008;6.754;2022-08-21T12:51:10;9.25;;;2.70;;
62006;SDS011;47963;53.008;6.754;2022-08-21T12:56:11;10.35;;;2.85;;
62006;SDS011;47963;53.008;6.754;2022-08-21T12:58:40;9.65;;;2.70;;
62006;SDS011;47963;53.008;6.754;2022-08-21T13:01:19;8.23;;;2.58;;
62006;SDS011;47963;53.008;6.754;2022-08-21T13:03:53;10.15;;;2.95;;
62006;SDS011;47963;53.008;6.754;2022-08-21T13:06:23;10.35;;;2.70;;
62006;SDS011;47963;53.008;6.754;2022-08-21T13:08:55;9.48;;;2.78;;
62006;SDS011;47963;53.008;6.754;2022-08-21T13:11:28;8.52;;;2.75;;
62006;SDS011;47963;53.008;6.754;2022-08-21T13:13:53;9.63;;;2.80;;
62006;SDS011;47963;53.008;6.754;2022-08-21T13:16:24;9.70;;;2.50;;
62006;SDS011;47963;53.008;6.754;2022-08-21T13:18:56;9.05;;;3.17;;
62006;SDS011;47963;53.008;6.754;2022-08-21T13:21:27;9.02;;;2.90;;
62006;SDS011;47963;53.008;6.754;2022-08-21T13:24:06;12.18;;;3.00;;
62006;SDS011;47963;53.008;6.754;2022-08-21T13:26:35;11.73;;;3.38;;
62006;SDS011;47963;53.008;6.754;2022-08-21T13:29:06;9.95;;;3.17;;
62006;SDS011;47963;53.008;6.754;2022-08-21T13:31:36;11.95;;;3.25;;
62006;SDS011;47963;53.008;6.754;2022-08-21T13:34:03;10.30;;;3.40;;
62006;SDS011;47963;53.008;6.754;2022-08-21T13:36:32;12.10;;;3.78;;
62006;SDS011;47963;53.008;6.754;2022-08-21T13:39:02;11.68;;;3.30;;
62006;SDS011;47963;53.008;6.754;2022-08-21T13:41:34;11.10;;;3.58;;
62006;SDS011;47963;53.008;6.754;2022-08-21T13:44:03;11.88;;;3.20;;
62006;SDS011;47963;53.008;6.754;2022-08-21T13:46:32;10.02;;;3.10;;
62006;SDS011;47963;53.008;6.754;2022-08-21T13:49:00;9.77;;;2.88;;
62006;SDS011;47963;53.008;6.754;2022-08-21T13:51:29;11.13;;;3.10;;
62006;SDS011;47963;53.008;6.754;2022-08-21T13:53:56;11.45;;;3.58;;
62006;SDS011;47963;53.008;6.754;2022-08-21T13:58:51;11.00;;;3.35;;
62006;SDS011;47963;53.008;6.754;2022-08-21T14:03:50;10.05;;;3.13;;
62006;SDS011;47963;53.008;6.754;2022-08-21T14:06:22;10.82;;;3.08;;
62006;SDS011;47963;53.008;6.754;2022-08-21T14:08:53;10.43;;;2.85;;
62006;SDS011;47963;53.008;6.754;2022-08-21T14:11:22;9.80;;;3.08;;
62006;SDS011;47963;53.008;6.754;2022-08-21T14:16:24;8.00;;;2.45;;
62006;SDS011;47963;53.008;6.754;2022-08-21T14:21:36;8.75;;;3.10;;
62006;SDS011;47963;53.008;6.754;2022-08-21T14:26:50;9.18;;;3.00;;
62006;SDS011;47963;53.008;6.754;2022-08-21T14:29:27;8.95;;;2.83;;
62006;SDS011;47963;53.008;6.754;2022-08-21T14:31:58;11.23;;;2.80;;
62006;SDS011;47963;53.008;6.754;2022-08-21T14:34:32;10.02;;;2.97;;
62006;SDS011;47963;53.008;6.754;2022-08-21T14:36:58;9.88;;;3.00;;
62006;SDS011;47963;53.008;6.754;2022-08-21T14:39:24;9.50;;;3.10;;
62006;SDS011;47963;53.008;6.754;2022-08-21T14:41:49;8.80;;;2.55;;
62006;SDS011;47963;53.008;6.754;2022-08-21T14:44:17;9.02;;;2.50;;
62006;SDS011;47963;53.008;6.754;2022-08-21T14:46:44;11.18;;;2.88;;
62006;SDS011;47963;53.008;6.754;2022-08-21T14:49:10;10.07;;;2.65;;
62006;SDS011;47963;53.008;6.754;2022-08-21T14:51:36;7.18;;;2.30;;
62006;SDS011;47963;53.008;6.754;2022-08-21T14:54:03;9.40;;;2.67;;
62006;SDS011;47963;53.008;6.754;2022-08-21T14:56:30;7.63;;;2.28;;
62006;SDS011;47963;53.008;6.754;2022-08-21T14:58:58;10.77;;;2.63;;
62006;SDS011;47963;53.008;6.754;2022-08-21T15:01:28;8.10;;;2.47;;
62006;SDS011;47963;53.008;6.754;2022-08-21T15:03:53;9.82;;;2.60;;
62006;SDS011;47963;53.008;6.754;2022-08-21T15:06:19;9.45;;;2.63;;
62006;SDS011;47963;53.008;6.754;2022-08-21T15:08:46;11.93;;;3.08;;
62006;SDS011;47963;53.008;6.754;2022-08-21T15:11:17;8.60;;;2.90;;
62006;SDS011;47963;53.008;6.754;2022-08-21T15:13:46;11.02;;;2.70;;
62006;SDS011;47963;53.008;6.754;2022-08-21T15:16:14;9.35;;;2.47;;
62006;SDS011;47963;53.008;6.754;2022-08-21T15:18:39;8.77;;;2.47;;
62006;SDS011;47963;53.008;6.754;2022-08-21T15:21:06;8.02;;;2.40;;
62006;SDS011;47963;53.008;6.754;2022-08-21T15:23:32;8.80;;;3.00;;
62006;SDS011;47963;53.008;6.754;2022-08-21T15:25:58;7.82;;;2.58;;
62006;SDS011;47963;53.008;6.754;2022-08-21T15:28:24;9.23;;;2.65;;
62006;SDS011;47963;53.008;6.754;2022-08-21T15:30:50;7.68;;;2.40;;
62006;SDS011;47963;53.008;6.754;2022-08-21T15:33:17;7.93;;;2.70;;
62006;SDS011;47963;53.008;6.754;2022-08-21T15:35:43;8.10;;;2.35;;
62006;SDS011;47963;53.008;6.754;2022-08-21T15:38:09;8.00;;;2.50;;
62006;SDS011;47963;53.008;6.754;2022-08-21T15:40:35;8.90;;;2.45;;
62006;SDS011;47963;53.008;6.754;2022-08-21T15:43:04;8.00;;;2.25;;
62006;SDS011;47963;53.008;6.754;2022-08-21T15:45:31;7.05;;;2.20;;
62006;SDS011;47963;53.008;6.754;2022-08-21T15:47:58;8.13;;;2.65;;
62006;SDS011;47963;53.008;6.754;2022-08-21T15:50:24;8.95;;;2.83;;
62006;SDS011;47963;53.008;6.754;2022-08-21T15:52:51;8.40;;;2.35;;
62006;SDS011;47963;53.008;6.754;2022-08-21T15:55:17;10.23;;;2.30;;
62006;SDS011;47963;53.008;6.754;2022-08-21T15:57:45;8.82;;;2.80;;
62006;SDS011;47963;53.008;6.754;2022-08-21T16:00:14;9.80;;;2.50;;
62006;SDS011;47963;53.008;6.754;2022-08-21T16:05:15;9.93;;;2.72;;
62006;SDS011;47963;53.008;6.754;2022-08-21T16:07:42;8.52;;;2.55;;
62006;SDS011;47963;53.008;6.754;2022-08-21T16:10:10;9.90;;;2.63;;
62006;SDS011;47963;53.008;6.754;2022-08-21T16:12:37;9.90;;;2.45;;
62006;SDS011;47963;53.008;6.754;2022-08-21T16:15:12;8.82;;;2.28;;
62006;SDS011;47963;53.008;6.754;2022-08-21T16:17:40;9.55;;;2.40;;
62006;SDS011;47963;53.008;6.754;2022-08-21T16:20:14;8.48;;;2.70;;
62006;SDS011;47963;53.008;6.754;2022-08-21T16:22:44;8.83;;;2.63;;